createdAt,value
2019-02-16T00:04:11.821Z,301.2
2019-02-16T00:09:20.398Z,301.6
2019-02-16T00:19:37.786Z,301.7
2019-02-16T00:40:12.465Z,301.8
2019-02-16T00:50:29.901Z,301.4
2019-02-16T01:00:47.479Z,301.4
2019-02-16T01:11:04.918Z,301.2
2019-02-16T01:21:22.358Z,301.1
2019-02-16T01:36:48.675Z,301.3
2019-02-16T01:41:57.500Z,301.1
2019-02-16T01:52:15.131Z,301.1
2019-02-16T01:57:23.877Z,301
2019-02-16T02:02:32.701Z,301
2019-02-16T02:12:50.375Z,301.2
2019-02-16T02:17:59.241Z,301.2
2019-02-16T02:23:07.900Z,301.1
2019-02-16T02:33:25.550Z,301.3
2019-02-16T02:43:43.194Z,301.1
2019-02-16T02:54:01.002Z,301.1
2019-02-16T02:59:09.748Z,300.8
2019-02-16T03:04:18.725Z,301
2019-02-16T03:09:27.508Z,301.1
2019-02-16T03:19:45.343Z,301.1
2019-02-16T03:24:54.192Z,301.1
2019-02-16T03:35:11.956Z,300.8
2019-02-16T03:45:29.623Z,300.9
2019-02-16T03:50:38.593Z,301.2
2019-02-16T03:55:47.830Z,300.9
2019-02-16T04:00:56.371Z,300.8
2019-02-16T04:06:05.351Z,300.8
2019-02-16T04:16:23.219Z,300.8
2019-02-16T04:21:32.068Z,300.8
2019-02-16T04:26:41.097Z,300.8
2019-02-16T04:36:58.905Z,300.7
2019-02-16T04:47:16.822Z,300.6
2019-02-16T05:02:43.792Z,300.7
2019-02-16T05:18:10.696Z,300.9
2019-02-16T05:28:28.616Z,301
2019-02-16T05:38:46.576Z,301
2019-02-16T05:43:55.653Z,300.7
2019-02-16T05:49:04.641Z,300.9
2019-02-16T05:59:22.620Z,301
2019-02-16T06:09:40.455Z,301
2019-02-16T06:19:58.472Z,301
2019-02-16T06:50:51.871Z,301
2019-02-16T07:01:09.710Z,301
2019-02-16T07:11:27.325Z,301
2019-02-16T07:16:36.168Z,301
2019-02-16T07:21:45.037Z,305.5
2019-02-16T07:32:02.702Z,302
2019-02-16T07:42:20.368Z,301.4
2019-02-16T08:02:54.494Z,301.5
2019-02-16T08:13:10.867Z,301.4
2019-02-16T08:33:42.708Z,301.3
2019-02-16T08:43:58.088Z,301.4
2019-02-16T08:49:05.666Z,301.5
2019-02-16T08:54:13.225Z,301.2
2019-02-16T09:04:28.197Z,301.1
2019-02-16T09:14:43.093Z,301
2019-02-16T09:24:57.734Z,300.9
2019-02-16T09:35:12.349Z,301
2019-02-16T09:40:19.703Z,300.9
2019-02-16T09:45:26.838Z,300.9
2019-02-16T09:55:40.943Z,300.9
2019-02-16T10:00:47.874Z,300.9
2019-02-16T10:11:01.711Z,301
2019-02-16T10:16:08.581Z,301
2019-02-16T10:31:29.235Z,301.1
2019-02-16T10:36:35.973Z,301.1
2019-02-16T10:41:42.871Z,301.1
2019-02-16T10:46:49.734Z,301.2
2019-02-16T10:51:56.532Z,301.4
2019-02-16T10:57:03.291Z,301.9
2019-02-16T11:02:10.830Z,301.6
2019-02-16T11:07:17.053Z,301.4
2019-02-16T11:17:30.523Z,301.6
2019-02-16T11:22:37.399Z,301.6
2019-02-16T11:27:44.142Z,301.5
2019-02-16T11:32:50.948Z,301.6
2019-02-16T11:37:57.837Z,301.7
2019-02-16T11:43:04.576Z,301.9
2019-02-16T11:58:24.987Z,301.9
2019-02-16T12:03:31.943Z,301.7
2019-02-16T12:08:38.744Z,301.7
2019-02-16T12:18:52.396Z,301.7
2019-02-16T12:29:06.117Z,301.9
2019-02-16T12:34:13.081Z,301.8
2019-02-16T12:39:19.884Z,301.8
2019-02-16T12:44:26.836Z,302
2019-02-16T12:49:33.673Z,301.9
2019-02-16T12:59:47.572Z,301.8
2019-02-16T13:04:54.503Z,301.8
2019-02-16T13:10:01.407Z,301.8
2019-02-16T13:20:15.260Z,302
2019-02-16T13:25:22.262Z,301.8
2019-02-16T13:40:43.235Z,301.7
2019-02-16T13:50:57.383Z,301.8
2019-02-16T14:11:26.074Z,301.7
2019-02-16T14:21:40.452Z,301.7
2019-02-16T14:31:55.119Z,301.8
2019-02-16T14:37:02.529Z,302.1
2019-02-16T14:42:09.764Z,302
2019-02-16T14:47:16.994Z,301.7
2019-02-16T14:52:24.428Z,301.7
2019-02-16T15:02:39.333Z,301.9
2019-02-16T15:07:50.398Z,301.8
2019-02-16T15:23:09.012Z,302
2019-02-16T15:28:16.580Z,301.9
2019-02-16T15:43:39.302Z,302.3
2019-02-16T15:48:46.893Z,302
2019-02-16T16:04:09.812Z,302.1
2019-02-16T16:14:25.122Z,302.1
2019-02-16T16:34:56.138Z,302.2
2019-02-16T16:45:11.543Z,302
2019-02-16T17:00:35.186Z,302.1
2019-02-16T17:05:42.934Z,302.1
2019-02-16T17:15:58.671Z,302
2019-02-16T17:21:06.556Z,302.1
2019-02-16T17:26:14.557Z,302.1
2019-02-16T17:46:53.318Z,301.9
2019-02-16T18:07:18.429Z,302.1
2019-02-16T18:17:34.587Z,302.2
2019-02-16T18:27:50.840Z,302.4
2019-02-16T18:32:59.006Z,302.2
2019-02-16T18:43:15.403Z,302.7
2019-02-16T18:48:23.595Z,302.5
2019-02-16T18:53:31.739Z,302.5
2019-02-16T18:58:40.046Z,302.2
2019-02-16T19:29:29.456Z,302.4
2019-02-16T19:39:45.995Z,302.7
2019-02-16T19:44:54.380Z,302.3
2019-02-16T19:50:02.618Z,302.6
2019-02-16T20:00:19.399Z,302.4
2019-02-16T20:10:36.068Z,302.4
2019-02-16T20:31:09.711Z,303.2
2019-02-16T20:36:18.130Z,302.5
2019-02-16T20:41:26.589Z,302.7
2019-02-16T20:46:35.085Z,302.8
2019-02-16T21:07:08.897Z,302.6
2019-02-16T21:12:18.581Z,302.9
2019-02-16T21:22:34.574Z,303
2019-02-16T21:27:43.089Z,303.4
2019-02-16T21:32:51.701Z,303.7
2019-02-16T21:43:08.675Z,304.1
2019-02-16T21:48:17.455Z,304
2019-02-16T21:53:25.822Z,304.3
2019-02-16T22:08:51.599Z,304
2019-02-16T22:14:00.208Z,303.7
2019-02-16T22:24:17.513Z,304
2019-02-16T22:29:26.148Z,303.9
2019-02-16T22:34:34.720Z,304.2
2019-02-16T22:39:43.291Z,304.8
2019-02-16T22:44:51.991Z,304.1
2019-02-16T22:55:09.201Z,304.2
2019-02-16T23:05:26.478Z,304.2
2019-02-16T23:15:44.021Z,305.1
2019-02-16T23:26:01.125Z,304.5
2019-02-16T23:36:18.420Z,303.6
2019-02-16T23:51:44.593Z,304.2
2019-02-16T23:56:53.227Z,304
